Terminal Aerodrome Forecast
Issued by NWS Topeka, KS

Home | Current Version | Previous Version | Graphics & Text | Print | Product List | Glossary On
Versions: 1 2 3 4 5 6 7 8 9 10 11 12 13 14
209
FTUS43 KTOP 222338
TAFTOP
TAF
KTOP 222338Z 2300/2324 05012KT P6SM BKN070
     FM230200 03005KT P6SM BKN060
     FM230600 03004KT P6SM SCT120=

USA.gov is the U.S. government's official web portal to all federal, state and local government web resources and services.